Time;durP1;ratioP1;P1;durP2;ratioP2;P2;SDS_P1;SDS_P2;PMS_P1;PMS_P2;Temp;Humidity;BMP_temperature;BMP_pressure;BME280_temperature;BME280_humidity;BME280_pressure;Samples;Min_cycle;Max_cycle;Signal;HPM_P1;HPM_P2
2023/06/05 04:00:57;;;;;;;2.43;2.10;;;10.40;97.20;;;;;;5744202;23;20496;-92
2023/06/05 04:03:27;;;;;;;1.63;1.53;;;10.40;97.00;;;;;;4965286;28;20437;-89
2023/06/05 04:05:57;;;;;;;16.67;4.17;;;10.40;97.10;;;;;;4953689;29;20415;-91
2023/06/05 04:08:30;;;;;;;4.40;2.27;;;10.50;97.20;;;;;;4944604;29;20427;-89
2023/06/05 04:10:59;;;;;;;2.43;2.23;;;10.50;97.10;;;;;;4951564;28;20502;-92
2023/06/05 04:13:52;;;;;;;1.47;1.40;;;10.50;97.10;;;;;;4952510;29;20442;-90
2023/06/05 04:16:17;;;;;;;1.63;1.53;;;10.50;97.30;;;;;;4954727;28;20422;-93
2023/06/05 04:18:43;;;;;;;2.27;1.90;;;10.50;97.30;;;;;;4972743;23;20506;-84
2023/06/05 04:21:08;;;;;;;4.50;2.93;;;10.60;97.30;;;;;;4954770;29;20191;-85
2023/06/05 04:23:34;;;;;;;3.30;2.33;;;10.60;97.30;;;;;;4949792;29;20258;-85
2023/06/05 04:25:59;;;;;;;2.00;1.90;;;10.60;97.30;;;;;;4943298;29;20658;-85
2023/06/05 04:28:26;;;;;;;2.10;1.70;;;10.70;97.30;;;;;;4955565;28;20288;-85
2023/06/05 04:30:51;;;;;;;1.93;1.70;;;10.70;97.30;;;;;;4923336;29;20263;-84
2023/06/05 04:33:17;;;;;;;3.20;2.30;;;10.70;97.30;;;;;;4934174;29;20463;-85
2023/06/05 04:35:42;;;;;;;2.23;2.03;;;10.70;97.30;;;;;;4932793;29;20172;-84
2023/06/05 04:38:08;;;;;;;1.80;1.70;;;10.70;97.30;;;;;;4929582;29;21408;-85
2023/06/05 04:40:33;;;;;;;2.60;2.40;;;10.70;97.30;;;;;;4924853;29;20232;-83
2023/06/05 04:42:59;;;;;;;3.80;1.83;;;10.80;97.30;;;;;;4946459;29;20180;-84
2023/06/05 04:45:24;;;;;;;2.53;2.33;;;10.80;97.30;;;;;;4921676;29;20180;-85
2023/06/05 04:47:51;;;;;;;2.50;1.87;;;10.80;97.30;;;;;;4926241;29;20376;-84
2023/06/05 04:50:25;;;;;;;2.77;2.57;;;10.90;97.30;;;;;;4925237;29;20200;-87
2023/06/05 04:52:53;;;;;;;4.13;2.10;;;10.90;97.30;;;;;;4923171;29;20420;-86
2023/06/05 04:55:18;;;;;;;2.80;1.77;;;10.90;97.30;;;;;;4927423;29;20591;-85
2023/06/05 04:57:44;;;;;;;2.53;2.33;;;11.00;97.30;;;;;;4933917;29;20511;-83
2023/06/05 05:00:11;;;;;;;2.07;1.70;;;11.00;97.30;;;;;;4927079;29;20193;-84
2023/06/05 05:02:36;;;;;;;5.90;2.17;;;11.00;97.30;;;;;;4919989;29;20189;-85
2023/06/05 05:05:02;;;;;;;2.33;2.13;;;11.10;97.30;;;;;;4929278;29;20416;-86
2023/06/05 05:07:28;;;;;;;6.50;2.67;;;11.10;97.30;;;;;;4933824;29;20235;-86
2023/06/05 05:09:54;;;;;;;2.13;1.83;;;11.10;97.30;;;;;;4930711;29;20236;-85
2023/06/05 05:12:19;;;;;;;2.70;2.47;;;11.20;97.20;;;;;;4927880;29;20939;-86
2023/06/05 05:14:45;;;;;;;2.60;2.40;;;11.20;97.10;;;;;;4934676;29;20180;-84
2023/06/05 05:17:11;;;;;;;1.97;1.87;;;11.30;96.90;;;;;;4927000;29;20263;-86
2023/06/05 05:19:40;;;;;;;2.30;2.10;;;11.40;96.60;;;;;;4920986;29;20180;-84
2023/06/05 05:22:06;;;;;;;1.87;1.77;;;11.50;96.50;;;;;;4924878;29;21128;-84
2023/06/05 05:24:32;;;;;;;2.50;2.33;;;11.60;96.50;;;;;;4933427;29;20421;-86
2023/06/05 05:26:57;;;;;;;3.07;2.87;;;11.80;96.50;;;;;;4936838;29;20576;-84
2023/06/05 05:29:23;;;;;;;2.40;2.03;;;11.80;96.20;;;;;;4931365;29;20740;-85
2023/06/05 05:31:48;;;;;;;4.70;2.13;;;11.90;95.90;;;;;;4952043;29;20631;-85
2023/06/05 05:34:14;;;;;;;1.73;1.63;;;12.10;95.70;;;;;;4937924;29;20175;-85
2023/06/05 05:36:39;;;;;;;2.50;1.60;;;12.20;95.40;;;;;;4941195;29;20635;-86
2023/06/05 05:39:04;;;;;;;1.80;1.70;;;12.30;95.20;;;;;;4927920;29;20195;-84
2023/06/05 05:41:30;;;;;;;3.07;2.33;;;12.50;95.00;;;;;;4929824;29;20184;-86
2023/06/05 05:43:55;;;;;;;3.30;2.27;;;12.60;94.80;;;;;;4939510;29;20286;-84
2023/06/05 05:46:21;;;;;;;6.50;1.73;;;12.70;94.30;;;;;;4929743;29;20192;-84
2023/06/05 05:48:46;;;;;;;1.80;1.70;;;12.80;93.90;;;;;;4926258;29;20546;-84
2023/06/05 05:51:12;;;;;;;3.37;2.03;;;13.00;93.40;;;;;;4920780;29;20263;-86
2023/06/05 05:53:38;;;;;;;3.77;2.73;;;13.10;92.90;;;;;;4917899;29;20227;-83
2023/06/05 05:56:04;;;;;;;2.63;1.57;;;13.30;91.70;;;;;;4917619;29;20998;-85
2023/06/05 05:58:31;;;;;;;1.23;1.13;;;13.40;91.40;;;;;;4927672;29;20205;-85
2023/06/05 06:00:57;;;;;;;1.90;1.80;;;13.60;91.30;;;;;;4922604;29;20219;-85
2023/06/05 06:03:23;;;;;;;1.67;1.30;;;13.70;91.20;;;;;;4931561;29;20451;-86
2023/06/05 06:05:48;;;;;;;4.77;2.23;;;13.80;90.80;;;;;;4930534;29;20267;-86
2023/06/05 06:08:15;;;;;;;3.27;2.93;;;13.80;90.60;;;;;;4920986;29;20614;-87
2023/06/05 06:10:40;;;;;;;2.23;2.03;;;13.90;90.50;;;;;;4932273;29;20207;-86
2023/06/05 06:13:07;;;;;;;2.30;2.10;;;14.10;90.10;;;;;;4930510;29;20519;-86
2023/06/05 06:15:32;;;;;;;2.43;1.67;;;14.20;89.70;;;;;;4922952;29;20417;-86
2023/06/05 06:17:59;;;;;;;5.03;2.17;;;14.30;89.30;;;;;;4916688;29;20533;-84
2023/06/05 06:20:25;;;;;;;1.20;1.20;;;14.40;88.90;;;;;;4915287;29;20538;-84
2023/06/05 06:22:50;;;;;;;3.33;2.77;;;14.60;88.80;;;;;;4932445;29;20898;-86
2023/06/05 06:25:17;;;;;;;1.70;1.63;;;14.70;88.90;;;;;;4916948;29;20429;-84
2023/06/05 06:27:48;;;;;;;1.03;1.00;;;14.80;89.10;;;;;;4924781;29;20222;-83
2023/06/05 06:30:16;;;;;;;1.83;1.73;;;14.80;89.00;;;;;;4929082;29;20494;-86
2023/06/05 06:32:42;;;;;;;1.20;1.10;;;14.90;87.20;;;;;;4925532;29;20421;-84
2023/06/05 06:35:07;;;;;;;2.83;1.47;;;15.10;87.20;;;;;;4940948;29;20452;-86
2023/06/05 06:37:33;;;;;;;1.53;1.40;;;15.20;87.30;;;;;;4919123;29;20204;-86
2023/06/05 06:39:59;;;;;;;1.50;1.40;;;15.20;87.30;;;;;;4925053;29;20560;-86
2023/06/05 06:42:24;;;;;;;1.37;1.27;;;15.30;86.70;;;;;;4938967;28;20204;-86
2023/06/05 06:44:55;;;;;;;2.60;1.47;;;15.40;86.60;;;;;;4920860;29;20676;-86
2023/06/05 06:47:25;;;;;;;2.40;2.23;;;15.50;86.90;;;;;;4917547;29;20200;-86
2023/06/05 06:49:51;;;;;;;2.13;1.97;;;15.60;87.30;;;;;;4937767;29;20471;-86
2023/06/05 06:52:18;;;;;;;3.33;1.83;;;15.70;87.70;;;;;;4922563;29;20424;-86
2023/06/05 06:54:44;;;;;;;4.67;1.63;;;15.70;87.40;;;;;;4932246;29;20247;-86
2023/06/05 06:57:09;;;;;;;8.10;2.70;;;15.80;87.20;;;;;;4932982;29;20826;-86
2023/06/05 06:59:35;;;;;;;7.53;2.90;;;15.90;86.90;;;;;;4924560;29;20475;-85
2023/06/05 07:02:16;;;;;;;1.57;1.47;;;15.90;86.40;;;;;;4923999;29;20218;-86
2023/06/05 07:04:43;;;;;;;1.40;1.30;;;16.00;85.80;;;;;;4925481;29;20175;-84
2023/06/05 07:07:13;;;;;;;4.10;1.50;;;16.10;85.80;;;;;;4923322;29;20439;-84
2023/06/05 07:09:45;;;;;;;1.30;1.20;;;16.10;85.40;;;;;;4923129;29;20946;-84
2023/06/05 07:12:13;;;;;;;2.10;1.33;;;16.20;85.20;;;;;;4925924;29;20419;-84
2023/06/05 07:14:39;;;;;;;1.83;1.73;;;16.20;85.10;;;;;;4924669;29;20873;-84
2023/06/05 07:17:05;;;;;;;2.20;1.93;;;16.30;85.00;;;;;;4931898;29;20443;-85
2023/06/05 07:19:32;;;;;;;1.70;1.60;;;16.30;84.30;;;;;;4933941;29;20415;-86
2023/06/05 07:21:59;;;;;;;3.13;1.97;;;16.40;84.50;;;;;;4924286;29;20492;-86
2023/06/05 07:24:25;;;;;;;1.53;1.40;;;16.50;83.70;;;;;;4923486;29;20973;-83
2023/06/05 07:26:55;;;;;;;2.20;1.97;;;16.60;83.30;;;;;;4928890;29;20475;-87
2023/06/05 07:29:23;;;;;;;1.40;1.30;;;16.70;83.10;;;;;;4935838;29;20428;-86
2023/06/05 07:31:49;;;;;;;2.40;1.93;;;16.80;82.90;;;;;;4928063;29;20464;-85
2023/06/05 07:34:15;;;;;;;3.03;1.63;;;16.90;83.10;;;;;;4927513;29;20423;-86
2023/06/05 07:36:41;;;;;;;1.60;1.40;;;17.00;83.40;;;;;;4930000;29;20421;-84
2023/06/05 07:39:06;;;;;;;3.53;2.50;;;17.00;83.80;;;;;;4933424;29;20377;-86
2023/06/05 07:41:32;;;;;;;1.80;1.70;;;17.10;83.50;;;;;;4931500;29;20424;-85
2023/06/05 07:43:58;;;;;;;2.10;1.73;;;17.20;83.90;;;;;;4940973;29;20251;-86
2023/06/05 07:46:23;;;;;;;1.53;1.43;;;17.30;83.70;;;;;;4934058;29;20958;-87
2023/06/05 07:48:49;;;;;;;7.73;2.40;;;17.40;84.30;;;;;;4927526;29;20200;-86
2023/06/05 07:51:18;;;;;;;1.80;1.70;;;17.50;84.60;;;;;;4929708;29;20231;-86
2023/06/05 07:53:43;;;;;;;2.00;1.90;;;17.70;85.10;;;;;;4934542;29;20263;-86
2023/06/05 07:56:11;;;;;;;2.50;1.83;;;17.70;85.20;;;;;;4932336;29;20518;-86
2023/06/05 07:58:37;;;;;;;2.60;1.40;;;17.80;84.50;;;;;;4928070;29;20527;-84
2023/06/05 08:01:06;;;;;;;1.43;1.27;;;18.00;82.70;;;;;;4929717;29;20499;-86
2023/06/05 08:03:32;;;;;;;4.40;1.77;;;18.10;82.00;;;;;;4917614;29;20185;-86
2023/06/05 08:05:58;;;;;;;1.90;1.80;;;18.30;81.80;;;;;;4924978;29;20428;-85
2023/06/05 08:08:24;;;;;;;2.73;1.53;;;18.40;80.40;;;;;;4930582;29;20437;-84
2023/06/05 08:10:49;;;;;;;1.60;1.50;;;18.60;79.90;;;;;;4928856;29;20204;-86
2023/06/05 08:13:15;;;;;;;2.70;2.27;;;18.70;80.10;;;;;;4929982;29;20176;-86
2023/06/05 08:15:40;;;;;;;1.33;1.23;;;18.90;80.50;;;;;;4934086;29;20263;-86
2023/06/05 08:18:06;;;;;;;1.57;1.47;;;19.00;80.40;;;;;;4926117;29;20290;-84
2023/06/05 08:20:31;;;;;;;1.73;1.50;;;19.10;81.30;;;;;;4923232;29;20191;-85
2023/06/05 08:22:57;;;;;;;1.40;1.30;;;19.40;82.20;;;;;;4933899;29;20397;-86
2023/06/05 08:25:23;;;;;;;2.53;1.77;;;19.60;79.90;;;;;;4937350;29;20180;-86
2023/06/05 08:27:49;;;;;;;2.40;1.43;;;19.90;78.60;;;;;;4927902;29;20203;-85
2023/06/05 08:30:15;;;;;;;1.20;1.10;;;20.10;78.50;;;;;;4927794;29;20591;-87
2023/06/05 08:32:41;;;;;;;4.10;1.60;;;20.30;78.10;;;;;;4928919;29;20500;-86
2023/06/05 08:35:07;;;;;;;1.77;1.53;;;20.50;77.70;;;;;;4919298;29;20535;-85
2023/06/05 08:37:32;;;;;;;2.13;1.97;;;20.70;75.70;;;;;;4925169;29;20196;-84
2023/06/05 08:40:00;;;;;;;2.50;1.53;;;20.80;75.40;;;;;;4926141;29;20203;-84
2023/06/05 08:42:28;;;;;;;1.17;1.07;;;20.90;75.40;;;;;;4922384;29;20563;-86
2023/06/05 08:44:54;;;;;;;1.67;1.57;;;21.00;73.60;;;;;;4926634;29;20839;-84
2023/06/05 08:47:22;;;;;;;1.10;0.90;;;21.20;73.40;;;;;;4938412;28;20455;-86
2023/06/05 08:49:52;;;;;;;1.10;1.00;;;21.30;72.70;;;;;;4929239;29;20251;-86
2023/06/05 08:52:21;;;;;;;1.43;1.30;;;21.30;73.80;;;;;;4923584;29;20430;-86
2023/06/05 08:54:47;;;;;;;1.10;1.00;;;21.50;74.10;;;;;;4946213;29;20423;-83
2023/06/05 08:57:13;;;;;;;1.40;1.30;;;21.60;73.70;;;;;;4932237;29;20436;-85
2023/06/05 08:59:39;;;;;;;1.73;1.47;;;21.80;72.30;;;;;;4926123;29;20183;-83
2023/06/05 09:02:05;;;;;;;1.20;1.13;;;21.90;71.30;;;;;;4924132;29;20612;-85
2023/06/05 09:04:31;;;;;;;1.40;1.30;;;22.00;70.40;;;;;;4922799;29;20416;-83
2023/06/05 09:06:58;;;;;;;1.30;1.20;;;22.10;70.60;;;;;;4927938;29;20227;-86
2023/06/05 09:09:25;;;;;;;2.50;1.33;;;22.20;69.70;;;;;;4930968;29;20180;-86
2023/06/05 09:12:07;;;;;;;2.30;1.67;;;22.20;69.90;;;;;;4934281;29;20835;-86
2023/06/05 09:14:33;;;;;;;3.90;1.70;;;22.20;69.00;;;;;;4919513;29;20452;-87
2023/06/05 09:17:00;;;;;;;2.30;1.20;;;22.20;68.60;;;;;;4944992;29;21000;-83
2023/06/05 09:19:47;;;;;;;3.37;1.20;;;22.20;69.50;;;;;;4932140;29;20184;-87
2023/06/05 09:22:14;;;;;;;2.80;1.60;;;22.20;69.60;;;;;;4923223;29;20456;-86
2023/06/05 09:24:40;;;;;;;1.40;1.30;;;22.30;70.40;;;;;;4921603;29;20435;-83
2023/06/05 09:27:16;;;;;;;1.40;1.27;;;22.40;69.90;;;;;;4929656;29;20471;-84
2023/06/05 09:29:43;;;;;;;1.90;1.30;;;22.50;69.80;;;;;;4939889;29;20419;-86
2023/06/05 09:32:15;;;;;;;1.30;1.20;;;22.60;70.30;;;;;;4932604;29;20467;-83
2023/06/05 09:34:41;;;;;;;2.17;1.70;;;22.70;69.50;;;;;;4928856;29;20466;-83
2023/06/05 09:37:08;;;;;;;1.67;1.63;;;22.80;70.10;;;;;;4926175;29;20447;-86
2023/06/05 09:39:36;;;;;;;2.80;2.07;;;23.00;68.40;;;;;;4929581;29;20848;-84
2023/06/05 09:42:02;;;;;;;1.20;1.20;;;23.10;68.20;;;;;;4926218;29;20491;-86
2023/06/05 09:44:29;;;;;;;1.23;1.20;;;23.20;68.00;;;;;;4927845;29;20432;-83
2023/06/05 09:47:00;;;;;;;1.30;1.20;;;23.20;66.10;;;;;;4931759;29;20475;-86
2023/06/05 09:49:31;;;;;;;2.83;1.77;;;23.20;67.80;;;;;;4925941;29;20498;-86
2023/06/05 09:51:58;;;;;;;2.40;1.30;;;23.30;68.50;;;;;;4923426;29;20837;-86
2023/06/05 09:54:27;;;;;;;4.00;1.43;;;23.40;68.70;;;;;;4921635;29;20476;-86
2023/06/05 09:57:03;;;;;;;2.67;1.50;;;23.50;68.10;;;;;;4931716;29;20467;-84
2023/06/05 09:59:31;;;;;;;1.77;1.30;;;23.60;67.50;;;;;;4919830;29;20443;-86
2023/06/05 10:01:59;;;;;;;2.00;1.53;;;23.60;66.80;;;;;;4926630;29;20428;-83
2023/06/05 10:04:28;;;;;;;2.93;1.60;;;23.60;67.60;;;;;;4924868;29;20790;-87
2023/06/05 10:06:58;;;;;;;1.20;1.10;;;23.60;66.80;;;;;;4932258;29;20877;-86
2023/06/05 10:09:25;;;;;;;3.33;1.70;;;23.60;66.30;;;;;;4920402;29;20514;-83
2023/06/05 10:11:51;;;;;;;4.30;2.30;;;23.70;66.60;;;;;;4927359;29;20977;-87
2023/06/05 10:14:19;;;;;;;2.60;1.93;;;23.80;65.80;;;;;;4923503;29;20413;-83
2023/06/05 10:16:49;;;;;;;1.83;1.23;;;23.90;65.80;;;;;;4930556;29;20427;-86
2023/06/05 10:19:16;;;;;;;1.43;1.33;;;23.90;65.60;;;;;;4924565;29;20546;-86
2023/06/05 10:21:42;;;;;;;1.47;1.20;;;23.90;64.80;;;;;;4919261;29;20425;-85
2023/06/05 10:24:14;;;;;;;1.73;1.30;;;23.90;65.60;;;;;;4928820;29;20679;-86
2023/06/05 10:27:01;;;;;;;2.30;1.33;;;23.90;64.80;;;;;;4921183;29;20428;-84
2023/06/05 10:29:56;;;;;;;1.27;1.23;;;23.90;65.10;;;;;;4924975;29;20416;-85
2023/06/05 10:32:28;;;;;;;1.00;0.90;;;24.00;64.50;;;;;;4915075;29;20478;-84
2023/06/05 10:35:06;;;;;;;2.90;1.80;;;24.20;64.30;;;;;;4920656;29;20425;-84
2023/06/05 10:37:59;;;;;;;2.40;1.90;;;24.30;64.60;;;;;;4924476;29;20429;-86
2023/06/05 10:40:26;;;;;;;3.83;1.83;;;24.40;65.00;;;;;;4930394;29;20512;-86
2023/06/05 10:42:51;;;;;;;1.63;0.97;;;24.60;66.50;;;;;;4922634;29;20415;-86
2023/06/05 10:45:31;;;;;;;2.80;1.70;;;24.80;64.80;;;;;;4929725;29;20779;-87
2023/06/05 10:47:57;;;;;;;1.80;1.77;;;24.90;63.90;;;;;;4920607;29;20561;-85
2023/06/05 10:50:25;;;;;;;1.40;1.20;;;24.90;63.90;;;;;;4938803;29;20471;-86
2023/06/05 10:52:51;;;;;;;1.40;1.30;;;24.90;63.40;;;;;;4933471;29;20206;-86
2023/06/05 10:55:17;;;;;;;2.03;1.40;;;24.70;63.90;;;;;;4925060;29;20424;-85
2023/06/05 10:58:01;;;;;;;1.27;1.20;;;24.60;64.10;;;;;;4926820;29;20445;-84
2023/06/05 11:00:31;;;;;;;1.30;1.20;;;24.50;64.20;;;;;;4937661;29;20725;-86
2023/06/05 11:02:57;;;;;;;1.83;1.33;;;24.40;65.20;;;;;;4927616;29;20447;-86
2023/06/05 11:05:23;;;;;;;1.77;1.67;;;24.40;65.70;;;;;;4937192;29;20423;-85
2023/06/05 11:08:13;;;;;;;1.57;1.50;;;24.40;65.70;;;;;;4935579;29;20503;-86
2023/06/05 11:11:06;;;;;;;2.67;2.10;;;24.50;65.10;;;;;;4928342;29;20306;-85
2023/06/05 11:13:55;;;;;;;2.63;2.30;;;24.60;66.60;;;;;;4926355;29;20416;-86
2023/06/05 11:16:36;;;;;;;2.07;1.80;;;24.90;65.40;;;;;;4935422;29;20423;-86
2023/06/05 11:19:21;;;;;;;4.97;1.57;;;25.00;64.70;;;;;;4937845;29;20479;-86
2023/06/05 11:22:09;;;;;;;1.30;1.20;;;25.10;64.40;;;;;;4932412;29;20424;-83
2023/06/05 11:24:36;;;;;;;1.87;1.77;;;25.20;65.00;;;;;;4921737;29;20424;-83
2023/06/05 11:27:03;;;;;;;1.13;1.03;;;25.40;66.10;;;;;;4925567;29;20605;-86
2023/06/05 11:29:29;;;;;;;1.57;1.47;;;25.60;66.20;;;;;;4937661;29;20844;-85
2023/06/05 11:31:55;;;;;;;3.73;1.63;;;25.70;65.60;;;;;;4925758;29;20462;-86
2023/06/05 11:34:21;;;;;;;1.13;1.00;;;25.80;65.30;;;;;;4930263;29;20506;-83
2023/06/05 11:36:47;;;;;;;2.50;1.97;;;25.90;66.40;;;;;;4936312;29;20172;-85
2023/06/05 11:39:13;;;;;;;1.27;1.20;;;26.00;66.00;;;;;;4938836;29;20184;-87
2023/06/05 11:41:52;;;;;;;3.53;2.20;;;26.10;65.60;;;;;;4937371;29;20521;-83
2023/06/05 11:44:32;;;;;;;1.67;1.57;;;26.10;65.20;;;;;;4932214;29;20419;-85
2023/06/05 11:46:57;;;;;;;1.57;1.10;;;26.20;65.30;;;;;;4948804;29;20431;-87
2023/06/05 11:49:28;;;;;;;1.37;1.07;;;26.30;65.20;;;;;;4942044;28;20474;-84
2023/06/05 11:51:54;;;;;;;2.30;1.57;;;26.40;65.00;;;;;;4936587;29;20206;-84
2023/06/05 11:54:27;;;;;;;2.07;1.90;;;26.50;64.30;;;;;;4947322;28;20415;-86
2023/06/05 11:56:57;;;;;;;3.63;1.67;;;26.50;62.90;;;;;;4929664;29;20415;-86
2023/06/05 11:59:24;;;;;;;1.37;1.27;;;26.50;62.30;;;;;;4929791;29;20423;-86
2023/06/05 12:01:50;;;;;;;8.73;1.10;;;26.50;63.50;;;;;;4928729;29;20430;-86
2023/06/05 12:04:16;;;;;;;2.80;2.33;;;26.50;63.80;;;;;;4927004;29;20484;-86
2023/06/05 12:06:42;;;;;;;1.87;1.80;;;26.50;62.90;;;;;;4922028;29;20431;-84
2023/06/05 12:09:12;;;;;;;1.37;1.27;;;26.50;64.20;;;;;;4923487;29;20283;-84
2023/06/05 12:11:38;;;;;;;1.20;1.07;;;26.60;63.10;;;;;;4927914;29;20499;-83
2023/06/05 12:14:05;;;;;;;1.40;1.30;;;26.60;63.90;;;;;;4949315;28;20834;-86
2023/06/05 12:16:37;;;;;;;1.73;1.63;;;26.70;62.60;;;;;;4933626;29;20175;-85
2023/06/05 12:19:13;;;;;;;1.30;1.20;;;26.70;62.70;;;;;;4933834;29;20464;-86
2023/06/05 12:21:39;;;;;;;2.13;1.40;;;26.70;63.20;;;;;;4933937;29;20451;-83
2023/06/05 12:24:05;;;;;;;1.53;1.43;;;26.70;63.70;;;;;;4929681;29;20424;-86
2023/06/05 12:26:53;;;;;;;2.33;2.20;;;26.80;63.60;;;;;;4928593;29;20679;-86
2023/06/05 12:29:20;;;;;;;1.40;1.30;;;27.00;62.70;;;;;;4927783;29;20522;-86
2023/06/05 12:31:46;;;;;;;2.17;1.47;;;27.10;63.50;;;;;;4943262;28;20468;-85
2023/06/05 12:34:12;;;;;;;1.80;1.73;;;27.30;64.10;;;;;;4931848;29;20460;-86
2023/06/05 12:36:39;;;;;;;1.97;1.90;;;27.50;63.80;;;;;;4930870;29;20176;-83
2023/06/05 12:39:08;;;;;;;3.30;1.67;;;27.60;63.70;;;;;;4929312;29;20440;-83
2023/06/05 12:41:33;;;;;;;2.47;1.90;;;27.80;63.30;;;;;;4940636;28;20846;-86
2023/06/05 12:44:07;;;;;;;1.30;1.03;;;27.90;62.90;;;;;;4934191;29;20415;-83
2023/06/05 12:46:34;;;;;;;1.37;1.27;;;28.00;62.90;;;;;;4932452;29;20183;-85
2023/06/05 12:49:01;;;;;;;1.77;1.57;;;28.20;62.40;;;;;;4931400;29;20456;-83
2023/06/05 12:51:27;;;;;;;1.50;1.30;;;28.30;62.30;;;;;;4929625;29;20468;-84
2023/06/05 12:53:56;;;;;;;1.43;1.03;;;28.40;62.20;;;;;;4931019;29;20416;-86
2023/06/05 12:56:26;;;;;;;3.13;1.97;;;28.40;63.10;;;;;;4923485;29;20412;-87
2023/06/05 12:58:56;;;;;;;1.00;0.90;;;28.20;60.20;;;;;;4927244;29;20877;-86
2023/06/05 13:01:23;;;;;;;2.20;1.90;;;27.90;60.60;;;;;;4931963;29;20791;-87
2023/06/05 13:03:49;;;;;;;2.00;1.60;;;27.60;60.90;;;;;;4928097;29;20706;-86
2023/06/05 13:06:15;;;;;;;2.20;1.40;;;27.20;60.50;;;;;;4948027;28;20422;-85
2023/06/05 13:08:41;;;;;;;3.90;2.63;;;26.90;61.30;;;;;;4931882;29;20447;-86
2023/06/05 13:11:07;;;;;;;1.83;1.57;;;26.70;62.10;;;;;;4929261;29;20247;-83
2023/06/05 13:13:32;;;;;;;1.57;1.47;;;26.40;61.80;;;;;;4929010;29;20607;-84
2023/06/05 13:16:01;;;;;;;2.27;1.47;;;26.20;62.00;;;;;;4922092;29;20229;-85
2023/06/05 13:18:28;;;;;;;2.77;1.80;;;26.00;62.40;;;;;;4932157;29;20227;-83
2023/06/05 13:20:54;;;;;;;1.93;1.47;;;25.80;63.60;;;;;;4933072;29;20423;-85
2023/06/05 13:23:19;;;;;;;1.67;1.57;;;25.80;64.00;;;;;;4932619;29;20424;-86
2023/06/05 13:25:45;;;;;;;4.10;1.83;;;25.70;65.20;;;;;;4927468;29;20229;-86
2023/06/05 13:28:10;;;;;;;1.80;1.57;;;25.70;65.00;;;;;;4922511;29;20226;-83
2023/06/05 13:30:36;;;;;;;1.73;1.70;;;25.80;66.20;;;;;;4918102;29;20196;-85
2023/06/05 13:33:01;;;;;;;4.03;2.10;;;25.90;65.90;;;;;;4923928;29;20218;-85
2023/06/05 13:35:27;;;;;;;1.97;1.33;;;26.00;65.60;;;;;;4946531;28;20427;-85
2023/06/05 13:37:55;;;;;;;1.93;1.83;;;26.20;66.20;;;;;;4932230;29;20195;-86
2023/06/05 13:40:20;;;;;;;1.53;1.27;;;26.50;66.50;;;;;;4946570;28;20200;-85
2023/06/05 13:42:46;;;;;;;1.37;1.27;;;26.90;65.20;;;;;;4924766;29;20965;-83
2023/06/05 13:45:11;;;;;;;3.10;1.93;;;27.30;64.50;;;;;;4926587;29;20190;-85
2023/06/05 13:47:37;;;;;;;1.27;1.20;;;27.60;64.80;;;;;;4921684;29;20206;-86
2023/06/05 13:50:03;;;;;;;3.20;2.20;;;27.90;62.40;;;;;;4926191;29;20207;-83
2023/06/05 13:52:29;;;;;;;2.67;2.30;;;28.10;61.90;;;;;;4930053;29;20177;-86
2023/06/05 13:54:54;;;;;;;1.50;1.30;;;28.20;62.40;;;;;;4931172;29;20422;-86
2023/06/05 13:57:20;;;;;;;1.50;1.37;;;28.40;63.00;;;;;;4933377;29;20202;-85
2023/06/05 13:59:46;;;;;;;1.73;1.67;;;28.50;62.00;;;;;;4933015;29;20231;-86
2023/06/05 14:02:12;;;;;;;2.47;1.87;;;28.50;61.20;;;;;;4932888;29;20247;-84
2023/06/05 14:04:38;;;;;;;2.43;2.23;;;28.20;60.30;;;;;;4945825;29;20180;-86
2023/06/05 14:07:04;;;;;;;4.20;2.20;;;27.80;61.20;;;;;;4944087;29;20196;-87
2023/06/05 14:09:29;;;;;;;2.17;1.67;;;27.50;62.70;;;;;;4960885;29;20416;-85
2023/06/05 14:11:56;;;;;;;2.23;1.63;;;27.40;62.80;;;;;;4943734;29;20580;-86
2023/06/05 14:14:23;;;;;;;3.33;1.90;;;27.50;62.60;;;;;;4938793;29;20176;-86
2023/06/05 14:16:49;;;;;;;2.60;1.77;;;27.60;61.80;;;;;;4922655;29;20480;-84
2023/06/05 14:19:14;;;;;;;1.40;1.30;;;27.70;61.50;;;;;;4940015;28;20860;-85
2023/06/05 14:21:41;;;;;;;2.30;1.87;;;27.70;62.00;;;;;;4931771;29;20191;-86
2023/06/05 14:24:07;;;;;;;2.40;1.40;;;27.90;62.80;;;;;;4944158;28;20554;-85
2023/06/05 14:26:33;;;;;;;3.27;2.40;;;28.10;62.40;;;;;;4929252;29;20874;-85
2023/06/05 14:28:58;;;;;;;1.40;1.30;;;28.30;61.50;;;;;;4918629;29;20684;-87
2023/06/05 14:31:25;;;;;;;2.33;1.83;;;28.30;60.70;;;;;;4922537;29;20236;-85
2023/06/05 14:33:51;;;;;;;2.13;1.70;;;28.30;60.50;;;;;;4924199;29;20597;-86
2023/06/05 14:36:16;;;;;;;3.57;1.50;;;28.10;60.70;;;;;;4925080;29;20474;-87
2023/06/05 14:38:42;;;;;;;1.57;1.47;;;28.10;62.00;;;;;;4929721;29;20212;-86
2023/06/05 14:41:07;;;;;;;1.30;1.20;;;28.20;61.70;;;;;;4926565;29;20572;-86
2023/06/05 14:43:33;;;;;;;1.90;1.87;;;28.00;60.10;;;;;;4935644;28;20195;-85
2023/06/05 14:46:00;;;;;;;1.57;1.47;;;27.80;60.50;;;;;;4925969;29;20176;-86
2023/06/05 14:48:25;;;;;;;1.70;1.60;;;27.50;60.40;;;;;;4924469;29;20198;-86
2023/06/05 14:50:52;;;;;;;2.60;2.20;;;27.30;61.20;;;;;;4926101;29;20463;-85
2023/06/05 14:53:18;;;;;;;1.57;1.47;;;27.20;61.20;;;;;;4944293;29;20176;-84
2023/06/05 14:55:44;;;;;;;1.87;1.37;;;27.10;61.00;;;;;;4928226;29;20470;-85
2023/06/05 14:58:10;;;;;;;1.63;1.53;;;27.20;61.40;;;;;;4932357;29;20223;-86
2023/06/05 15:00:36;;;;;;;1.60;1.20;;;27.60;62.90;;;;;;4916590;29;20188;-82
2023/06/05 15:03:02;;;;;;;1.47;1.40;;;28.00;61.80;;;;;;4931040;29;20455;-84
2023/06/05 15:05:27;;;;;;;1.33;1.23;;;28.40;61.30;;;;;;4924076;29;20513;-85
2023/06/05 15:07:53;;;;;;;1.90;1.40;;;28.60;61.20;;;;;;4923233;29;20659;-82
2023/06/05 15:10:19;;;;;;;2.20;1.60;;;28.70;60.70;;;;;;4923374;29;20204;-85
2023/06/05 15:12:44;;;;;;;1.53;1.43;;;28.80;59.90;;;;;;4928147;29;20270;-83
2023/06/05 15:15:10;;;;;;;1.20;1.10;;;28.80;59.70;;;;;;4941265;28;20212;-82
2023/06/05 15:17:35;;;;;;;4.00;2.03;;;28.90;60.80;;;;;;4924965;29;20303;-82
2023/06/05 15:20:04;;;;;;;1.73;1.63;;;29.00;59.80;;;;;;4921595;29;20687;-85
2023/06/05 15:22:30;;;;;;;4.60;1.90;;;29.10;60.00;;;;;;4929517;29;20180;-87
2023/06/05 15:24:55;;;;;;;2.43;1.97;;;29.20;59.50;;;;;;4925164;29;20428;-84
2023/06/05 15:27:21;;;;;;;2.70;1.57;;;29.30;59.90;;;;;;4927619;29;20363;-84
2023/06/05 15:29:46;;;;;;;2.40;1.40;;;29.30;57.60;;;;;;4929126;29;20180;-85
2023/06/05 15:32:12;;;;;;;2.00;1.70;;;29.20;57.80;;;;;;4930337;29;20176;-82
2023/06/05 15:34:39;;;;;;;3.30;1.70;;;29.10;57.00;;;;;;4923716;29;20626;-82
2023/06/05 15:37:06;;;;;;;1.53;1.50;;;29.10;58.00;;;;;;4930132;29;20201;-82
2023/06/05 15:39:32;;;;;;;2.33;1.93;;;29.20;59.10;;;;;;4917698;29;20435;-85
2023/06/05 15:41:57;;;;;;;2.30;1.73;;;29.30;58.20;;;;;;4927195;29;20423;-84
2023/06/05 15:44:23;;;;;;;2.27;2.13;;;29.40;57.20;;;;;;4930334;29;20507;-82
2023/06/05 15:46:48;;;;;;;2.73;2.53;;;29.50;57.20;;;;;;4924885;29;20234;-82
2023/06/05 15:49:14;;;;;;;3.13;1.93;;;29.60;57.40;;;;;;4931077;29;20180;-85
2023/06/05 15:51:40;;;;;;;1.90;1.80;;;29.70;55.30;;;;;;4932996;29;20216;-84
2023/06/05 15:54:05;;;;;;;1.70;1.60;;;29.50;55.70;;;;;;4923692;29;20188;-81
2023/06/05 15:56:32;;;;;;;3.20;2.13;;;29.30;56.10;;;;;;4931341;29;20176;-85
2023/06/05 15:58:58;;;;;;;1.40;1.30;;;29.00;56.30;;;;;;4931799;29;20279;-82
2023/06/05 16:01:23;;;;;;;1.10;1.00;;;28.70;56.50;;;;;;4928507;29;20443;-82
2023/06/05 16:03:49;;;;;;;2.63;1.70;;;28.40;57.80;;;;;;4932191;29;20643;-87
2023/06/05 16:06:16;;;;;;;7.83;2.20;;;28.10;57.90;;;;;;4929247;29;20173;-83
2023/06/05 16:08:42;;;;;;;3.17;1.87;;;28.00;58.60;;;;;;4932750;29;20207;-84
2023/06/05 16:11:08;;;;;;;2.80;1.80;;;28.00;58.90;;;;;;4933707;29;20459;-83
2023/06/05 16:13:35;;;;;;;1.40;1.30;;;27.80;58.10;;;;;;4932877;29;20195;-84
2023/06/05 16:16:01;;;;;;;2.10;1.70;;;27.60;58.40;;;;;;4928238;29;20416;-87
2023/06/05 16:18:26;;;;;;;3.90;1.20;;;27.30;58.60;;;;;;4932135;29;20471;-84
2023/06/05 16:20:52;;;;;;;1.30;1.20;;;27.10;59.10;;;;;;4931747;29;20259;-85
2023/06/05 16:23:17;;;;;;;2.07;1.63;;;27.00;59.40;;;;;;4928195;29;20188;-82
2023/06/05 16:25:43;;;;;;;1.77;1.40;;;26.90;59.80;;;;;;4932984;29;20192;-84
2023/06/05 16:28:08;;;;;;;1.73;1.63;;;26.90;59.20;;;;;;4922847;29;20245;-84
2023/06/05 16:30:34;;;;;;;2.80;1.80;;;26.70;59.50;;;;;;4921180;29;20611;-87
2023/06/05 16:33:01;;;;;;;2.40;1.50;;;26.50;59.10;;;;;;4921772;29;20176;-88
2023/06/05 16:35:27;;;;;;;3.33;2.03;;;26.40;59.90;;;;;;4928841;29;20188;-87
2023/06/05 16:37:53;;;;;;;1.50;1.40;;;26.30;60.20;;;;;;4930552;29;20527;-86
2023/06/05 16:40:19;;;;;;;2.20;1.97;;;26.20;60.40;;;;;;4948657;28;20461;-88
2023/06/05 16:42:44;;;;;;;3.43;1.97;;;26.10;60.40;;;;;;4930691;29;20208;-86
2023/06/05 16:45:10;;;;;;;2.87;2.17;;;26.00;60.60;;;;;;4944706;29;20190;-84
2023/06/05 16:47:36;;;;;;;2.77;2.60;;;26.00;61.00;;;;;;4940580;29;20728;-84
2023/06/05 16:50:01;;;;;;;1.40;1.30;;;25.90;61.10;;;;;;4935845;29;20215;-86